Time;durP1;ratioP1;P1;durP2;ratioP2;P2;SDS_P1;SDS_P2;PMS_P1;PMS_P2;Temp;Humidity;BMP_temperature;BMP_pressure;BME280_temperature;BME280_humidity;BME280_pressure;Samples;Min_cycle;Max_cycle;Signal;HPM_P1;HPM_P2
2023/01/21 00:02:08;;;;;;;27.17;15.50;;;;;;;4.48;100.00;94025.50;5002148;28;20541;-79
2023/01/21 00:04:36;;;;;;;23.03;14.63;;;;;;;4.48;100.00;94035.81;4997795;28;20206;-76
2023/01/21 00:07:04;;;;;;;24.73;15.20;;;;;;;4.47;100.00;94029.84;4999623;28;20202;-77
2023/01/21 00:09:30;;;;;;;22.67;14.33;;;;;;;4.41;100.00;94038.38;5002292;28;20221;-76
2023/01/21 00:11:57;;;;;;;22.77;14.97;;;;;;;4.39;100.00;94042.13;4996966;28;20219;-76
2023/01/21 00:14:24;;;;;;;22.97;14.53;;;;;;;4.42;100.00;94032.22;4999683;28;20204;-75
2023/01/21 00:16:51;;;;;;;24.50;15.20;;;;;;;4.45;100.00;94044.72;4999755;28;20654;-76
2023/01/21 00:19:18;;;;;;;24.53;15.27;;;;;;;4.40;100.00;94044.50;5000770;28;20190;-75
2023/01/21 00:21:46;;;;;;;27.17;14.60;;;;;;;4.33;100.00;94043.69;4998061;28;20256;-76
2023/01/21 00:24:13;;;;;;;23.03;15.37;;;;;;;4.24;100.00;94037.13;5002565;28;20226;-75
2023/01/21 00:26:41;;;;;;;22.27;14.53;;;;;;;4.27;100.00;94029.03;5001541;28;20200;-80
2023/01/21 00:29:08;;;;;;;21.00;14.50;;;;;;;4.12;100.00;94014.78;4996215;28;20255;-76
2023/01/21 00:31:34;;;;;;;23.77;14.63;;;;;;;4.30;100.00;94048.47;4999185;28;20292;-76
2023/01/21 00:34:01;;;;;;;24.33;14.50;;;;;;;4.32;100.00;94049.84;4995436;28;20610;-76
2023/01/21 00:36:28;;;;;;;21.60;13.13;;;;;;;4.36;100.00;94027.06;4993520;28;20202;-75
2023/01/21 00:38:56;;;;;;;18.07;12.13;;;;;;;4.29;100.00;94037.38;5001844;28;20206;-76
2023/01/21 00:41:25;;;;;;;22.33;13.00;;;;;;;4.16;100.00;94018.53;4997723;28;20464;-76
2023/01/21 00:43:52;;;;;;;17.83;12.17;;;;;;;4.23;100.00;94017.56;5001365;28;20223;-77
2023/01/21 00:46:19;;;;;;;17.97;12.00;;;;;;;4.15;100.00;94011.81;4999690;28;20192;-76
2023/01/21 00:48:46;;;;;;;18.03;11.73;;;;;;;4.25;100.00;94032.78;4997723;28;20193;-74
2023/01/21 00:51:13;;;;;;;18.43;12.00;;;;;;;4.19;100.00;94033.56;4995731;28;20701;-74
2023/01/21 00:53:41;;;;;;;16.40;11.03;;;;;;;4.19;100.00;94023.28;5001800;28;20702;-76
2023/01/21 00:56:12;;;;;;;19.60;12.40;;;;;;;4.22;100.00;94020.31;4994317;28;20296;-75
2023/01/21 00:58:39;;;;;;;18.63;12.07;;;;;;;4.25;100.00;94019.94;4998457;28;20199;-75
2023/01/21 01:01:08;;;;;;;17.23;11.63;;;;;;;4.20;100.00;94030.03;5005288;28;20221;-75
2023/01/21 01:03:36;;;;;;;18.90;12.90;;;;;;;4.12;100.00;94028.44;4994079;28;20197;-76
2023/01/21 01:06:04;;;;;;;19.00;12.47;;;;;;;4.12;100.00;94036.13;5000529;28;20199;-76
2023/01/21 01:08:31;;;;;;;20.23;12.50;;;;;;;4.09;100.00;94033.16;4997448;28;20198;-75
2023/01/21 01:10:58;;;;;;;20.63;12.73;;;;;;;4.08;100.00;94029.78;4998821;28;20561;-75
2023/01/21 01:13:27;;;;;;;18.60;11.80;;;;;;;4.08;100.00;94023.84;4998276;28;20208;-75
2023/01/21 01:15:54;;;;;;;22.07;14.13;;;;;;;4.08;100.00;94024.66;4998219;28;21066;-74
2023/01/21 01:18:22;;;;;;;21.87;14.17;;;;;;;4.12;100.00;94027.63;4999403;28;20354;-75
2023/01/21 01:20:49;;;;;;;21.47;13.80;;;;;;;4.11;100.00;94038.88;4994667;28;21027;-75
2023/01/21 01:23:15;;;;;;;20.40;12.63;;;;;;;4.10;100.00;94037.31;5002158;28;20208;-75
2023/01/21 01:25:42;;;;;;;21.57;13.57;;;;;;;4.18;100.00;94030.22;4997652;28;20196;-76
2023/01/21 01:28:09;;;;;;;21.73;12.27;;;;;;;4.23;100.00;94022.72;4996401;28;20228;-77
2023/01/21 01:30:37;;;;;;;19.60;12.57;;;;;;;4.23;100.00;94021.91;4995924;28;20198;-75
2023/01/21 01:33:04;;;;;;;19.27;12.90;;;;;;;4.27;100.00;94016.19;4997558;28;20235;-76
2023/01/21 01:35:32;;;;;;;19.33;12.30;;;;;;;4.17;100.00;93999.56;4999254;28;20200;-75
2023/01/21 01:38:07;;;;;;;19.50;12.47;;;;;;;4.18;100.00;94017.38;4994103;28;20192;-76
2023/01/21 01:40:36;;;;;;;18.00;11.87;;;;;;;4.20;100.00;94002.53;5000184;28;20199;-75
2023/01/21 01:43:03;;;;;;;19.30;11.73;;;;;;;4.19;100.00;94000.94;4999059;28;20631;-75
2023/01/21 01:45:29;;;;;;;17.73;11.90;;;;;;;4.17;100.00;93996.97;4998581;28;20207;-76
2023/01/21 01:48:05;;;;;;;20.50;12.57;;;;;;;4.25;100.00;93996.78;4999909;28;20189;-75
2023/01/21 01:50:35;;;;;;;20.53;12.27;;;;;;;4.32;100.00;93993.25;4999435;28;20208;-76
2023/01/21 01:53:02;;;;;;;21.33;13.07;;;;;;;4.28;100.00;93963.78;4993729;28;20199;-76
2023/01/21 01:55:33;;;;;;;20.53;13.03;;;;;;;4.39;100.00;93981.19;5000246;28;20250;-75
2023/01/21 01:58:02;;;;;;;18.23;12.03;;;;;;;4.34;100.00;93985.34;4994997;28;20198;-76
2023/01/21 02:00:29;;;;;;;18.60;12.17;;;;;;;4.31;100.00;93967.72;4993365;28;20198;-75
2023/01/21 02:05:43;;;;;;;21.47;12.20;;;;;;;4.27;100.00;93964.75;4991835;28;20217;-75
2023/01/21 02:08:11;;;;;;;19.40;11.10;;;;;;;4.00;100.00;93970.84;4990710;28;20722;-75
2023/01/21 02:10:37;;;;;;;19.07;12.30;;;;;;;4.03;100.00;93973.03;4998675;28;20197;-75
2023/01/21 02:13:05;;;;;;;18.13;11.70;;;;;;;4.10;100.00;93967.91;4995036;28;21625;-75
2023/01/21 02:15:39;;;;;;;17.67;11.17;;;;;;;4.10;100.00;93963.53;4992464;28;20198;-75
2023/01/21 02:18:17;;;;;;;19.80;12.20;;;;;;;4.13;100.00;93958.00;4998975;28;20193;-76
2023/01/21 02:21:12;;;;;;;17.80;11.27;;;;;;;4.18;100.00;93939.44;4994904;28;20538;-76
2023/01/21 02:24:05;;;;;;;16.97;11.10;;;;;;;4.10;100.00;93955.84;4990334;28;20206;-78
2023/01/21 02:27:04;;;;;;;19.67;11.30;;;;;;;4.16;100.00;93947.34;4997851;28;20246;-76
2023/01/21 02:30:06;;;;;;;16.80;11.27;;;;;;;4.03;100.00;93939.63;4984609;28;21094;-76
2023/01/21 02:33:01;;;;;;;18.07;11.50;;;;;;;4.07;100.00;93934.88;4998848;28;20250;-76
2023/01/21 02:35:36;;;;;;;16.73;10.93;;;;;;;4.13;100.00;93934.88;4995581;28;20186;-77
2023/01/21 02:38:10;;;;;;;20.20;12.10;;;;;;;4.10;100.00;93919.84;4996219;28;20197;-76
2023/01/21 02:40:42;;;;;;;15.33;10.87;;;;;;;4.01;100.00;93937.22;4995453;28;20191;-77
2023/01/21 02:43:19;;;;;;;16.60;11.43;;;;;;;3.82;100.00;93901.22;4999400;28;20232;-77
2023/01/21 02:45:52;;;;;;;16.47;11.30;;;;;;;3.69;100.00;93924.34;5001410;28;20218;-77
2023/01/21 02:48:32;;;;;;;17.23;11.23;;;;;;;3.54;100.00;93931.41;4995223;28;20670;-77
2023/01/21 02:50:59;;;;;;;18.00;11.77;;;;;;;3.62;100.00;93924.31;5001133;28;20276;-77
2023/01/21 02:53:28;;;;;;;20.20;12.53;;;;;;;3.66;100.00;93935.78;5001626;28;20595;-76
2023/01/21 02:55:57;;;;;;;18.50;11.23;;;;;;;3.75;100.00;93926.91;4996117;28;20970;-75
2023/01/21 02:58:29;;;;;;;17.10;11.37;;;;;;;3.82;100.00;93916.66;5003119;28;20214;-75
2023/01/21 03:01:11;;;;;;;17.67;11.57;;;;;;;3.77;100.00;93922.38;4996701;28;20196;-74
2023/01/21 03:04:06;;;;;;;19.80;12.20;;;;;;;3.74;100.00;93903.97;4999026;28;20188;-75
2023/01/21 03:06:41;;;;;;;19.07;11.67;;;;;;;3.73;100.00;93904.97;5001205;28;20305;-74
2023/01/21 03:09:19;;;;;;;20.53;11.90;;;;;;;3.79;100.00;93891.34;5002330;28;20194;-74
2023/01/21 03:11:57;;;;;;;19.30;12.07;;;;;;;3.83;100.00;93903.63;4999214;28;20192;-75
2023/01/21 03:17:37;;;;;;;17.30;11.10;;;;;;;3.80;100.00;93887.78;4955465;28;20381;-75
2023/01/21 03:20:10;;;;;;;17.93;12.03;;;;;;;3.82;100.00;93890.94;4960495;28;20181;-76
2023/01/21 03:22:39;;;;;;;23.10;12.13;;;;;;;3.83;100.00;93879.69;4973437;28;20207;-75
2023/01/21 03:25:08;;;;;;;16.33;11.27;;;;;;;3.81;100.00;93879.88;4996740;28;20240;-75
2023/01/21 03:27:40;;;;;;;17.20;11.33;;;;;;;3.88;100.00;93874.75;5003074;28;20235;-75
2023/01/21 03:30:13;;;;;;;17.07;11.13;;;;;;;3.95;100.00;93883.28;4997569;28;20193;-74
2023/01/21 03:32:42;;;;;;;15.40;10.33;;;;;;;3.77;100.00;93868.44;4995651;28;20292;-75
2023/01/21 03:35:13;;;;;;;13.97;9.70;;;;;;;3.84;100.00;93876.13;4999662;28;20200;-74
2023/01/21 03:37:43;;;;;;;17.90;10.60;;;;;;;3.80;100.00;93862.09;4994373;28;20225;-77
2023/01/21 03:40:20;;;;;;;15.57;10.07;;;;;;;3.81;100.00;93858.56;4998942;28;20201;-76
2023/01/21 03:42:50;;;;;;;14.77;9.93;;;;;;;3.68;100.00;93849.03;5000765;28;20200;-77
2023/01/21 03:45:22;;;;;;;13.10;9.03;;;;;;;3.66;100.00;93856.16;5001192;28;20200;-76
2023/01/21 03:47:56;;;;;;;13.53;9.50;;;;;;;3.61;100.00;93850.03;4999832;28;20192;-77
2023/01/21 03:50:29;;;;;;;13.33;9.30;;;;;;;3.53;100.00;93851.00;4996226;28;20193;-76
2023/01/21 03:52:56;;;;;;;14.97;9.97;;;;;;;3.45;100.00;93853.75;5000259;28;20215;-76
2023/01/21 03:55:24;;;;;;;14.30;10.40;;;;;;;3.33;100.00;93850.94;4998883;28;20685;-76
2023/01/21 03:57:51;;;;;;;17.67;10.37;;;;;;;3.29;100.00;93844.59;4998925;28;20200;-76
2023/01/21 04:00:18;;;;;;;16.47;10.33;;;;;;;3.29;100.00;93846.41;5002702;28;20698;-75
2023/01/21 04:02:45;;;;;;;16.90;10.00;;;;;;;3.32;100.00;93846.00;4995599;28;20189;-78
2023/01/21 04:05:13;;;;;;;16.97;10.43;;;;;;;3.37;100.00;93866.75;4996728;28;20200;-79
2023/01/21 04:07:41;;;;;;;15.10;10.57;;;;;;;3.37;100.00;93857.28;4997371;28;20970;-77
2023/01/21 04:10:09;;;;;;;16.17;10.93;;;;;;;3.40;100.00;93850.97;5002860;28;20203;-78
2023/01/21 04:12:36;;;;;;;17.97;11.03;;;;;;;3.41;100.00;93852.53;4995876;28;21587;-77
2023/01/21 04:15:03;;;;;;;20.00;11.47;;;;;;;3.41;100.00;93861.03;5001464;28;20558;-77
2023/01/21 04:17:30;;;;;;;18.47;11.30;;;;;;;3.37;100.00;93857.28;4997922;28;20211;-78
2023/01/21 04:19:57;;;;;;;15.83;10.43;;;;;;;3.35;100.00;93823.28;4996015;28;20208;-78
2023/01/21 04:22:24;;;;;;;20.87;11.27;;;;;;;3.33;100.00;93815.00;5000118;28;20192;-77
2023/01/21 04:24:52;;;;;;;16.33;11.07;;;;;;;3.42;100.00;93818.97;5002305;28;20203;-77
2023/01/21 04:27:19;;;;;;;21.10;13.70;;;;;;;3.46;100.00;93834.78;4996466;28;20222;-77
2023/01/21 04:29:45;;;;;;;16.83;11.10;;;;;;;3.35;100.00;93827.63;5000790;28;20196;-77
2023/01/21 04:32:12;;;;;;;21.30;10.87;;;;;;;3.50;100.00;93846.25;4997353;28;20207;-77
2023/01/21 04:34:39;;;;;;;15.87;10.67;;;;;;;3.45;100.00;93838.34;4997379;28;20220;-77
2023/01/21 04:37:06;;;;;;;17.13;11.33;;;;;;;3.48;100.00;93843.09;5001441;28;20203;-77
2023/01/21 04:39:33;;;;;;;16.93;10.83;;;;;;;3.50;100.00;93858.28;4997974;28;20278;-76
2023/01/21 04:42:01;;;;;;;17.13;11.37;;;;;;;3.51;100.00;93872.72;4997641;28;20200;-75
2023/01/21 04:44:28;;;;;;;19.63;11.60;;;;;;;3.58;100.00;93879.44;5003102;28;20195;-74
2023/01/21 04:46:55;;;;;;;18.33;12.30;;;;;;;3.52;100.00;93885.34;4995320;28;20522;-75
2023/01/21 04:49:21;;;;;;;20.70;13.63;;;;;;;3.15;100.00;93878.13;5000790;28;20203;-75
2023/01/21 04:51:48;;;;;;;21.77;12.57;;;;;;;2.99;100.00;93886.16;4999597;28;20188;-76
2023/01/21 04:54:15;;;;;;;20.13;13.00;;;;;;;2.77;100.00;93886.25;4996665;28;20211;-76
2023/01/21 04:56:42;;;;;;;20.47;12.80;;;;;;;2.59;100.00;93882.59;4994989;28;20884;-76
2023/01/21 04:59:10;;;;;;;25.60;15.73;;;;;;;2.43;100.00;93880.31;5004022;28;20206;-76
2023/01/21 05:01:37;;;;;;;24.57;15.73;;;;;;;2.52;100.00;93884.31;4998788;28;20227;-76
2023/01/21 05:04:04;;;;;;;22.60;14.63;;;;;;;2.72;100.00;93883.47;4998677;28;20199;-76
2023/01/21 05:06:31;;;;;;;21.10;12.63;;;;;;;2.88;100.00;93899.53;4999816;28;20199;-76
2023/01/21 05:08:58;;;;;;;21.73;12.90;;;;;;;2.96;100.00;93897.59;4994502;28;20206;-76
2023/01/21 05:11:25;;;;;;;20.00;12.50;;;;;;;3.04;100.00;93900.00;4991788;28;20197;-77
2023/01/21 05:13:52;;;;;;;24.80;13.77;;;;;;;3.01;100.00;93907.28;4999239;28;20219;-77
2023/01/21 05:16:20;;;;;;;19.20;11.77;;;;;;;3.02;100.00;93904.53;4997178;28;20206;-75
2023/01/21 05:18:47;;;;;;;19.60;12.20;;;;;;;3.16;100.00;93902.81;4995178;28;20273;-77
2023/01/21 05:21:14;;;;;;;19.77;12.73;;;;;;;3.08;100.00;93880.69;4997958;28;20204;-76
2023/01/21 05:23:41;;;;;;;20.53;12.27;;;;;;;3.28;100.00;93911.56;4995665;28;20693;-76
2023/01/21 05:26:08;;;;;;;21.40;12.83;;;;;;;3.23;100.00;93909.53;4999693;28;20195;-76
2023/01/21 05:28:34;;;;;;;21.03;12.47;;;;;;;3.28;100.00;93909.78;4993724;28;20730;-76
2023/01/21 05:31:02;;;;;;;20.90;13.50;;;;;;;3.32;100.00;93910.97;4991710;28;20196;-76
2023/01/21 05:33:32;;;;;;;22.57;14.00;;;;;;;3.36;100.00;93921.66;4995317;28;20238;-75
2023/01/21 05:36:00;;;;;;;22.97;12.90;;;;;;;3.34;100.00;93919.28;4993216;28;20196;-77
2023/01/21 05:38:28;;;;;;;21.27;13.57;;;;;;;3.36;100.00;93916.53;4996845;28;20197;-76
2023/01/21 05:40:58;;;;;;;20.53;12.73;;;;;;;3.23;100.00;93901.84;4992954;28;20230;-76
2023/01/21 05:43:25;;;;;;;22.80;13.17;;;;;;;3.33;100.00;93927.97;4997667;28;20199;-76
2023/01/21 05:45:52;;;;;;;21.90;12.63;;;;;;;3.35;100.00;93928.56;4998130;28;20195;-76
2023/01/21 05:48:31;;;;;;;20.40;12.73;;;;;;;3.29;100.00;93924.19;4997331;28;20210;-76
2023/01/21 05:50:59;;;;;;;25.93;15.17;;;;;;;3.12;100.00;93933.19;4999818;28;20192;-77
2023/01/21 05:53:29;;;;;;;30.07;16.60;;;;;;;3.18;100.00;93941.91;5000758;28;20187;-77
2023/01/21 05:55:57;;;;;;;31.50;17.20;;;;;;;3.16;100.00;93931.03;4995954;28;21167;-76
2023/01/21 05:58:25;;;;;;;30.50;17.23;;;;;;;3.12;100.00;93911.88;4995653;28;20251;-78
2023/01/21 06:00:52;;;;;;;31.17;17.47;;;;;;;3.10;100.00;93912.06;5001039;28;20299;-74
2023/01/21 06:03:19;;;;;;;35.10;18.23;;;;;;;3.07;100.00;93914.22;4991988;28;20215;-75
2023/01/21 06:05:49;;;;;;;32.13;18.23;;;;;;;3.05;100.00;93913.63;4994588;28;20601;-76
2023/01/21 06:08:17;;;;;;;31.10;18.10;;;;;;;3.09;100.00;93931.00;4995091;28;20206;-75
2023/01/21 06:10:44;;;;;;;31.00;19.27;;;;;;;2.84;100.00;93929.88;4998329;28;20192;-74
2023/01/21 06:13:12;;;;;;;40.37;23.37;;;;;;;2.81;100.00;93920.00;4995978;28;20227;-74
2023/01/21 06:15:39;;;;;;;43.83;25.63;;;;;;;2.82;100.00;93921.59;4990662;28;20220;-75
2023/01/21 06:18:07;;;;;;;42.20;25.10;;;;;;;2.79;100.00;93927.09;4994196;28;20211;-74
2023/01/21 06:20:34;;;;;;;45.57;24.37;;;;;;;2.71;100.00;93922.91;4993044;28;20206;-74
2023/01/21 06:23:02;;;;;;;42.93;25.30;;;;;;;2.74;100.00;93927.66;4996019;28;20203;-74
2023/01/21 06:25:31;;;;;;;45.33;26.60;;;;;;;2.74;100.00;93926.88;4992261;28;20192;-75
2023/01/21 06:27:58;;;;;;;52.50;28.27;;;;;;;2.90;100.00;93931.72;4997604;28;20238;-75
2023/01/21 06:30:25;;;;;;;42.93;25.70;;;;;;;2.98;100.00;93939.25;4996793;28;20220;-75
2023/01/21 06:32:53;;;;;;;48.60;27.50;;;;;;;2.75;100.00;93901.03;4997814;28;20200;-71
2023/01/21 06:35:20;;;;;;;56.83;33.47;;;;;;;2.94;100.00;93940.63;4993958;28;20223;-71
2023/01/21 06:37:47;;;;;;;52.10;29.37;;;;;;;2.90;100.00;93949.66;4996721;28;20192;-73
2023/01/21 06:40:14;;;;;;;52.30;28.80;;;;;;;2.72;100.00;93949.34;4993374;28;20713;-73
2023/01/21 06:42:45;;;;;;;50.83;29.03;;;;;;;2.69;100.00;93958.22;5001177;28;20258;-73
2023/01/21 06:45:12;;;;;;;56.70;31.80;;;;;;;2.73;100.00;93951.75;5002279;28;20738;-73
2023/01/21 06:47:40;;;;;;;61.97;32.23;;;;;;;2.71;100.00;93963.16;4998150;28;20654;-73
2023/01/21 06:50:08;;;;;;;79.97;44.50;;;;;;;2.74;100.00;93961.00;4998916;28;20203;-73
2023/01/21 06:52:34;;;;;;;87.13;46.40;;;;;;;2.81;100.00;93974.69;5000533;28;20211;-73
2023/01/21 06:55:01;;;;;;;76.13;36.30;;;;;;;2.81;100.00;93963.63;4994677;28;20233;-73
2023/01/21 06:57:29;;;;;;;68.97;35.47;;;;;;;2.84;100.00;93968.38;4996421;28;20258;-73
2023/01/21 06:59:57;;;;;;;69.63;33.47;;;;;;;2.77;100.00;93980.38;4994806;28;20195;-73
2023/01/21 07:02:24;;;;;;;52.37;26.27;;;;;;;2.79;100.00;93988.66;5000647;28;20203;-79
2023/01/21 07:04:51;;;;;;;52.90;25.67;;;;;;;2.82;100.00;93996.00;4998710;28;20196;-74
2023/01/21 07:07:18;;;;;;;53.37;25.60;;;;;;;2.77;100.00;93960.63;5000603;28;20196;-74
2023/01/21 07:09:45;;;;;;;45.93;23.50;;;;;;;2.96;100.00;93974.56;4997387;28;20203;-74
2023/01/21 07:12:12;;;;;;;44.00;22.47;;;;;;;3.03;100.00;93969.50;5001417;28;20205;-74
2023/01/21 07:14:39;;;;;;;45.03;23.97;;;;;;;3.06;100.00;93972.44;4997562;28;20247;-74
2023/01/21 07:17:07;;;;;;;44.20;22.87;;;;;;;3.16;100.00;93972.91;4999249;28;20195;-72
2023/01/21 07:19:35;;;;;;;46.77;23.10;;;;;;;3.28;100.00;93975.72;4997649;28;20266;-71
2023/01/21 07:22:02;;;;;;;43.97;22.87;;;;;;;3.34;100.00;93983.47;4998719;28;20608;-74
2023/01/21 07:24:29;;;;;;;41.87;21.83;;;;;;;3.34;100.00;93977.53;4992691;28;20311;-74
2023/01/21 07:26:56;;;;;;;43.87;22.50;;;;;;;3.37;100.00;93984.88;4999334;28;20204;-74
2023/01/21 07:29:23;;;;;;;50.10;25.53;;;;;;;3.33;100.00;93987.00;4997313;28;20295;-72
2023/01/21 07:31:50;;;;;;;61.17;31.20;;;;;;;3.33;100.00;93971.63;4996560;28;20275;-73
2023/01/21 07:34:18;;;;;;;56.63;29.97;;;;;;;3.37;100.00;93964.31;4999251;28;20240;-73
2023/01/21 07:36:45;;;;;;;63.43;30.47;;;;;;;3.37;100.00;93960.00;5003526;28;20189;-73
2023/01/21 07:39:12;;;;;;;49.60;27.27;;;;;;;3.39;100.00;93952.09;5000878;28;20202;-73
2023/01/21 07:41:39;;;;;;;45.93;23.90;;;;;;;3.38;100.00;93943.59;4999311;28;20346;-73
2023/01/21 07:44:06;;;;;;;41.30;23.13;;;;;;;3.53;100.00;93948.56;5000198;28;20205;-72
2023/01/21 07:46:33;;;;;;;43.00;22.73;;;;;;;3.64;100.00;93955.72;4997828;28;20200;-72
2023/01/21 07:49:00;;;;;;;39.63;21.33;;;;;;;3.71;100.00;93959.13;4998851;28;20197;-72
2023/01/21 07:51:28;;;;;;;37.30;21.30;;;;;;;3.73;100.00;93964.84;5003356;28;20196;-73
2023/01/21 07:53:56;;;;;;;36.07;20.33;;;;;;;3.71;100.00;93958.31;4997536;28;20251;-73
2023/01/21 07:56:24;;;;;;;39.20;20.17;;;;;;;3.72;100.00;93954.78;4993652;28;20287;-72
2023/01/21 07:58:50;;;;;;;36.37;19.90;;;;;;;3.74;100.00;93945.88;4999214;28;20204;-74
2023/01/21 08:01:17;;;;;;;36.27;20.37;;;;;;;3.80;100.00;93939.97;5000333;28;20663;-74
2023/01/21 08:03:44;;;;;;;32.03;19.00;;;;;;;3.84;100.00;93925.75;4994238;28;20193;-73
2023/01/21 08:06:11;;;;;;;29.27;15.43;;;;;;;4.01;100.00;93936.47;5001068;28;20561;-73
2023/01/21 08:08:39;;;;;;;19.57;11.67;;;;;;;4.08;100.00;93932.09;4995977;28;20825;-72
2023/01/21 08:11:06;;;;;;;18.20;9.30;;;;;;;4.20;100.00;93938.25;4994408;28;20272;-73
2023/01/21 08:13:33;;;;;;;16.43;8.73;;;;;;;4.40;100.00;93963.97;5003915;28;20202;-73
2023/01/21 08:16:00;;;;;;;11.50;7.60;;;;;;;4.57;100.00;93973.69;4995618;28;20221;-72
2023/01/21 08:18:26;;;;;;;12.47;7.53;;;;;;;4.72;100.00;93972.69;4995201;28;20227;-73
2023/01/21 08:20:58;;;;;;;11.50;6.60;;;;;;;4.89;100.00;93964.38;5001731;28;20203;-73
2023/01/21 08:23:24;;;;;;;11.33;7.13;;;;;;;5.03;100.00;93968.50;4993481;28;20217;-74
2023/01/21 08:25:53;;;;;;;14.17;8.00;;;;;;;5.10;100.00;93973.66;4997010;28;20194;-72
2023/01/21 08:28:20;;;;;;;10.23;6.90;;;;;;;5.24;100.00;93967.47;4995467;28;20623;-72
2023/01/21 08:30:47;;;;;;;10.20;6.80;;;;;;;5.31;100.00;93964.88;4997305;28;20205;-74
2023/01/21 08:33:14;;;;;;;10.17;6.77;;;;;;;5.36;100.00;93970.22;4996129;28;20194;-82
2023/01/21 08:35:41;;;;;;;9.13;6.50;;;;;;;5.40;100.00;93979.09;5000586;28;20218;-76
2023/01/21 08:38:08;;;;;;;9.83;6.57;;;;;;;5.43;100.00;93982.06;4996612;28;20664;-76
2023/01/21 08:40:35;;;;;;;11.63;7.13;;;;;;;5.45;100.00;93974.94;4993344;28;20205;-78
2023/01/21 08:43:06;;;;;;;9.50;6.63;;;;;;;5.64;100.00;93981.81;4999837;28;20575;-84
2023/01/21 08:45:32;;;;;;;10.20;6.00;;;;;;;5.74;100.00;93991.69;4996575;28;20206;-76
2023/01/21 08:48:02;;;;;;;12.13;6.30;;;;;;;5.89;100.00;93994.81;4992900;28;20194;-77
2023/01/21 08:50:29;;;;;;;8.93;6.20;;;;;;;6.02;100.00;93994.75;5003910;28;20213;-77
2023/01/21 08:52:56;;;;;;;12.93;6.60;;;;;;;6.21;100.00;93993.06;4994171;28;20231;-77
2023/01/21 08:55:25;;;;;;;8.33;6.20;;;;;;;6.36;100.00;93996.16;4996054;28;20215;-77
2023/01/21 08:57:53;;;;;;;10.10;6.10;;;;;;;6.46;100.00;93999.06;5001234;28;20199;-77
2023/01/21 09:00:22;;;;;;;9.93;6.30;;;;;;;6.44;100.00;94006.22;4999903;28;20557;-77
2023/01/21 09:02:49;;;;;;;10.53;6.07;;;;;;;6.49;100.00;93995.28;4991742;28;20196;-79
2023/01/21 09:05:17;;;;;;;9.03;6.00;;;;;;;6.41;100.00;93988.56;5000283;28;20206;-77
2023/01/21 09:07:44;;;;;;;9.87;5.77;;;;;;;6.56;100.00;94004.56;4994075;28;20192;-78
2023/01/21 09:10:11;;;;;;;8.87;6.10;;;;;;;6.67;100.00;93998.72;4998324;28;20196;-78
2023/01/21 09:12:40;;;;;;;9.93;7.73;;;;;;;6.72;100.00;93995.50;4996374;28;20200;-78
2023/01/21 09:15:08;;;;;;;11.27;7.90;;;;;;;6.69;100.00;93991.56;4993054;28;20239;-77
2023/01/21 09:17:37;;;;;;;12.33;6.17;;;;;;;6.85;100.00;93990.22;5000880;28;20206;-76
2023/01/21 09:20:05;;;;;;;7.63;5.00;;;;;;;6.99;100.00;93983.16;4994217;28;20188;-77
2023/01/21 09:22:31;;;;;;;7.87;5.50;;;;;;;7.11;100.00;93989.22;4990173;28;20196;-78
2023/01/21 09:24:58;;;;;;;10.63;5.50;;;;;;;7.20;100.00;93980.19;4994507;28;20950;-78
2023/01/21 09:27:26;;;;;;;7.77;5.03;;;;;;;7.34;100.00;93982.44;4998740;28;20200;-78
2023/01/21 09:29:54;;;;;;;6.57;4.70;;;;;;;7.42;100.00;93978.75;4993336;28;20204;-78
2023/01/21 09:32:20;;;;;;;11.17;4.60;;;;;;;7.46;100.00;93974.75;4993942;28;20250;-77
2023/01/21 09:34:49;;;;;;;8.23;4.77;;;;;;;7.48;100.00;93975.31;4994681;28;20665;-77
2023/01/21 09:37:15;;;;;;;8.73;5.40;;;;;;;7.62;99.10;93963.81;4997581;28;20206;-78
2023/01/21 09:39:42;;;;;;;5.97;4.13;;;;;;;7.58;99.78;93951.56;4992288;28;20200;-78
2023/01/21 09:42:18;;;;;;;6.87;4.13;;;;;;;7.50;99.38;93942.31;4999585;28;20200;-78
2023/01/21 09:44:48;;;;;;;5.53;4.03;;;;;;;7.56;99.66;93945.81;5001172;28;20202;-76
2023/01/21 09:47:19;;;;;;;5.07;3.97;;;;;;;7.61;98.39;93959.69;4998735;28;20195;-78
2023/01/21 09:49:52;;;;;;;8.03;3.80;;;;;;;7.60;98.51;93955.50;4995800;28;20188;-78
2023/01/21 09:52:26;;;;;;;6.90;3.50;;;;;;;7.67;98.21;93953.63;5001027;28;20211;-78
2023/01/21 09:54:53;;;;;;;7.23;3.90;;;;;;;7.80;98.43;93963.81;4996699;28;20226;-77
2023/01/21 09:57:44;;;;;;;5.97;3.80;;;;;;;7.90;98.18;93950.38;5000391;28;20200;-81
2023/01/21 10:00:24;;;;;;;6.60;4.10;;;;;;;8.02;96.85;93946.81;5001889;28;20206;-77
2023/01/21 10:02:58;;;;;;;5.63;3.70;;;;;;;8.22;95.77;93938.78;5000079;28;20564;-76
2023/01/21 10:05:56;;;;;;;5.77;3.50;;;;;;;8.91;95.27;93939.94;4997664;28;20179;-83
2023/01/21 10:08:31;;;;;;;5.17;3.00;;;;;;;10.33;90.70;93933.22;5002264;28;20191;-82
2023/01/21 10:11:07;;;;;;;6.40;3.00;;;;;;;12.18;83.84;93942.03;5007315;28;20539;-80
2023/01/21 10:13:59;;;;;;;5.20;3.30;;;;;;;13.84;77.43;93963.41;5001753;28;20199;-79
2023/01/21 10:16:34;;;;;;;5.33;3.10;;;;;;;15.30;72.49;93968.13;4995199;28;20230;-80
2023/01/21 10:19:04;;;;;;;4.87;2.83;;;;;;;16.52;66.55;93961.44;4999348;28;20700;-78
2023/01/21 10:21:39;;;;;;;3.70;3.03;;;;;;;17.65;62.14;93970.88;4998596;28;20219;-77
2023/01/21 10:24:14;;;;;;;4.07;3.10;;;;;;;18.25;59.16;93980.72;4995195;28;20290;-75
2023/01/21 10:26:43;;;;;;;3.53;2.93;;;;;;;18.52;56.52;93974.88;4995326;28;20195;-76
2023/01/21 10:29:16;;;;;;;4.20;3.00;;;;;;;19.04;54.96;93992.31;4999576;28;20684;-81
2023/01/21 10:31:46;;;;;;;5.40;2.60;;;;;;;19.10;53.35;93976.16;4999308;28;20184;-75
2023/01/21 10:34:15;;;;;;;3.67;2.70;;;;;;;19.70;52.43;93976.25;4998892;28;20203;-77
2023/01/21 10:36:54;;;;;;;4.63;2.77;;;;;;;20.20;50.17;93977.16;4998584;28;20313;-76
2023/01/21 10:39:34;;;;;;;6.87;4.30;;;;;;;20.34;50.24;93977.97;4996860;28;20589;-77
2023/01/21 10:42:40;;;;;;;3.35;2.50;;;;;;;20.03;49.61;93972.44;4997465;28;20191;-76
2023/01/21 10:45:18;;;;;;;4.25;2.60;;;;;;;20.88;48.26;93956.72;4996934;28;20779;-76
2023/01/21 10:47:50;;;;;;;3.10;2.60;;;;;;;20.86;47.04;93953.63;4999443;28;20191;-75
2023/01/21 10:50:30;;;;;;;5.55;3.22;;;;;;;20.88;45.79;93940.88;4994272;28;20196;-77
2023/01/21 10:53:06;;;;;;;3.00;2.70;;;;;;;21.24;44.85;93945.38;4998778;28;20631;-77
2023/01/21 10:55:45;;;;;;;3.00;2.60;;;;;;;21.59;44.71;93965.63;4996432;28;20319;-77
2023/01/21 10:58:24;;;;;;;3.38;2.70;;;;;;;21.69;43.28;93952.16;5004899;28;20769;-76
2023/01/21 11:00:54;;;;;;;3.08;2.78;;;;;;;21.66;43.33;93951.97;4994901;28;20625;-73
2023/01/21 11:03:32;;;;;;;2.92;2.53;;;;;;;21.42;43.67;93944.38;4997369;28;20222;-74
2023/01/21 11:06:01;;;;;;;2.90;2.50;;;;;;;21.20;44.15;93937.25;4996596;28;20195;-76
2023/01/21 11:08:32;;;;;;;4.03;2.67;;;;;;;21.34;43.37;93931.88;5000162;28;20214;-76
2023/01/21 11:11:00;;;;;;;4.55;2.90;;;;;;;21.22;44.17;93934.28;4997694;28;20227;-76
2023/01/21 11:13:27;;;;;;;3.45;2.63;;;;;;;21.33;43.52;93933.75;4997039;28;20211;-75
2023/01/21 11:16:02;;;;;;;5.38;2.40;;;;;;;21.43;43.30;93946.72;4997165;28;20219;-76
2023/01/21 11:18:33;;;;;;;4.47;2.85;;;;;;;21.26;44.19;93945.84;4998770;28;20484;-76
2023/01/21 11:21:03;;;;;;;5.20;2.47;;;;;;;21.04;43.85;93954.50;5000344;28;20250;-76
2023/01/21 11:23:33;;;;;;;3.60;2.60;;;;;;;20.64;44.58;93950.91;5001855;28;20207;-75
2023/01/21 11:26:02;;;;;;;4.20;2.70;;;;;;;20.87;44.14;93952.50;4998069;28;20184;-77
2023/01/21 11:28:33;;;;;;;3.03;2.72;;;;;;;20.17;46.05;93948.72;4999836;28;20238;-75
2023/01/21 11:31:07;;;;;;;3.03;2.55;;;;;;;19.83;46.03;93940.44;5000479;28;20219;-76
2023/01/21 11:33:34;;;;;;;4.18;2.70;;;;;;;20.57;46.33;93937.34;4997671;28;20187;-76
2023/01/21 11:36:11;;;;;;;4.78;2.60;;;;;;;20.50;45.93;93942.25;4988387;28;20216;-73
2023/01/21 11:38:40;;;;;;;6.05;2.47;;;;;;;20.71;45.80;93946.03;5005991;28;20209;-74
2023/01/21 11:41:19;;;;;;;3.90;2.40;;;;;;;20.22;46.34;93930.94;5000144;28;20196;-72